sensor_id;sensor_type;location;lat;lon;timestamp;P1;durP1;ratioP1;P2;durP2;ratioP2
14235;SDS011;7202;50.718;7.072;2024-01-10T00:00:53;11.87;;;5.27;;
14235;SDS011;7202;50.718;7.072;2024-01-10T00:03:22;9.47;;;5.47;;
14235;SDS011;7202;50.718;7.072;2024-01-10T00:05:50;15.00;;;5.63;;
14235;SDS011;7202;50.718;7.072;2024-01-10T00:08:19;6.93;;;4.43;;
14235;SDS011;7202;50.718;7.072;2024-01-10T00:10:48;9.00;;;4.50;;
14235;SDS011;7202;50.718;7.072;2024-01-10T00:13:17;8.13;;;4.53;;
14235;SDS011;7202;50.718;7.072;2024-01-10T00:15:45;9.03;;;5.23;;
14235;SDS011;7202;50.718;7.072;2024-01-10T00:18:16;8.87;;;5.00;;
14235;SDS011;7202;50.718;7.072;2024-01-10T00:20:45;10.00;;;4.50;;
14235;SDS011;7202;50.718;7.072;2024-01-10T00:23:14;13.30;;;5.43;;
14235;SDS011;7202;50.718;7.072;2024-01-10T00:25:43;8.47;;;4.30;;
14235;SDS011;7202;50.718;7.072;2024-01-10T00:28:13;7.80;;;4.43;;
14235;SDS011;7202;50.718;7.072;2024-01-10T00:30:43;8.47;;;4.50;;
14235;SDS011;7202;50.718;7.072;2024-01-10T00:33:15;9.17;;;4.57;;
14235;SDS011;7202;50.718;7.072;2024-01-10T00:35:44;8.43;;;4.90;;
14235;SDS011;7202;50.718;7.072;2024-01-10T00:38:13;9.87;;;5.13;;
14235;SDS011;7202;50.718;7.072;2024-01-10T00:40:41;12.53;;;5.03;;
14235;SDS011;7202;50.718;7.072;2024-01-10T00:43:10;7.03;;;4.27;;
14235;SDS011;7202;50.718;7.072;2024-01-10T00:45:39;10.90;;;4.87;;
14235;SDS011;7202;50.718;7.072;2024-01-10T00:48:07;12.50;;;4.73;;
14235;SDS011;7202;50.718;7.072;2024-01-10T00:50:37;11.07;;;5.03;;
14235;SDS011;7202;50.718;7.072;2024-01-10T00:53:06;9.93;;;4.73;;
14235;SDS011;7202;50.718;7.072;2024-01-10T00:55:34;10.77;;;5.03;;
14235;SDS011;7202;50.718;7.072;2024-01-10T00:58:03;10.60;;;5.00;;
14235;SDS011;7202;50.718;7.072;2024-01-10T01:00:32;9.03;;;4.20;;
14235;SDS011;7202;50.718;7.072;2024-01-10T01:03:01;8.13;;;4.30;;
14235;SDS011;7202;50.718;7.072;2024-01-10T01:05:29;8.83;;;4.47;;
14235;SDS011;7202;50.718;7.072;2024-01-10T01:08:00;9.37;;;4.40;;
14235;SDS011;7202;50.718;7.072;2024-01-10T01:10:28;11.10;;;4.50;;
14235;SDS011;7202;50.718;7.072;2024-01-10T01:12:58;7.93;;;4.57;;
14235;SDS011;7202;50.718;7.072;2024-01-10T01:15:27;7.17;;;4.40;;
14235;SDS011;7202;50.718;7.072;2024-01-10T01:17:55;11.50;;;5.27;;
14235;SDS011;7202;50.718;7.072;2024-01-10T01:20:24;9.20;;;4.27;;
14235;SDS011;7202;50.718;7.072;2024-01-10T01:22:56;9.53;;;5.50;;
14235;SDS011;7202;50.718;7.072;2024-01-10T01:25:26;7.87;;;4.17;;
14235;SDS011;7202;50.718;7.072;2024-01-10T01:27:55;8.47;;;4.97;;
14235;SDS011;7202;50.718;7.072;2024-01-10T01:30:24;9.87;;;5.03;;
14235;SDS011;7202;50.718;7.072;2024-01-10T01:32:52;10.87;;;5.00;;
14235;SDS011;7202;50.718;7.072;2024-01-10T01:35:21;7.40;;;3.87;;
14235;SDS011;7202;50.718;7.072;2024-01-10T01:37:50;11.40;;;5.33;;
14235;SDS011;7202;50.718;7.072;2024-01-10T01:40:19;7.97;;;4.63;;
14235;SDS011;7202;50.718;7.072;2024-01-10T01:42:49;8.93;;;4.87;;
14235;SDS011;7202;50.718;7.072;2024-01-10T01:45:17;9.83;;;4.50;;
14235;SDS011;7202;50.718;7.072;2024-01-10T01:47:46;8.47;;;4.70;;
14235;SDS011;7202;50.718;7.072;2024-01-10T01:50:15;11.27;;;5.30;;
14235;SDS011;7202;50.718;7.072;2024-01-10T01:52:43;9.27;;;5.13;;
14235;SDS011;7202;50.718;7.072;2024-01-10T01:55:12;8.63;;;5.10;;
14235;SDS011;7202;50.718;7.072;2024-01-10T01:57:41;11.33;;;4.77;;
14235;SDS011;7202;50.718;7.072;2024-01-10T02:00:12;9.27;;;5.23;;
14235;SDS011;7202;50.718;7.072;2024-01-10T02:02:42;10.70;;;5.07;;
14235;SDS011;7202;50.718;7.072;2024-01-10T02:05:12;9.07;;;4.93;;
14235;SDS011;7202;50.718;7.072;2024-01-10T02:07:42;9.60;;;4.73;;
14235;SDS011;7202;50.718;7.072;2024-01-10T02:10:10;8.77;;;4.83;;
14235;SDS011;7202;50.718;7.072;2024-01-10T02:12:39;9.23;;;4.80;;
14235;SDS011;7202;50.718;7.072;2024-01-10T02:15:08;8.60;;;4.57;;
14235;SDS011;7202;50.718;7.072;2024-01-10T02:17:38;11.00;;;5.03;;
14235;SDS011;7202;50.718;7.072;2024-01-10T02:20:07;15.57;;;5.30;;
14235;SDS011;7202;50.718;7.072;2024-01-10T02:22:36;8.17;;;4.70;;
14235;SDS011;7202;50.718;7.072;2024-01-10T02:25:07;12.30;;;5.30;;
14235;SDS011;7202;50.718;7.072;2024-01-10T02:27:36;10.27;;;4.87;;
14235;SDS011;7202;50.718;7.072;2024-01-10T02:30:06;9.60;;;4.87;;
14235;SDS011;7202;50.718;7.072;2024-01-10T02:32:36;8.57;;;5.43;;
14235;SDS011;7202;50.718;7.072;2024-01-10T02:35:06;11.37;;;5.40;;
14235;SDS011;7202;50.718;7.072;2024-01-10T02:37:35;9.03;;;5.07;;
14235;SDS011;7202;50.718;7.072;2024-01-10T02:40:04;8.47;;;4.30;;
14235;SDS011;7202;50.718;7.072;2024-01-10T02:42:35;8.53;;;4.97;;
14235;SDS011;7202;50.718;7.072;2024-01-10T02:45:04;12.43;;;5.70;;
14235;SDS011;7202;50.718;7.072;2024-01-10T02:47:33;9.90;;;5.33;;
14235;SDS011;7202;50.718;7.072;2024-01-10T02:50:03;9.87;;;5.43;;
14235;SDS011;7202;50.718;7.072;2024-01-10T02:52:36;8.47;;;5.00;;
14235;SDS011;7202;50.718;7.072;2024-01-10T02:55:07;11.10;;;5.37;;
14235;SDS011;7202;50.718;7.072;2024-01-10T02:57:35;9.57;;;5.63;;
14235;SDS011;7202;50.718;7.072;2024-01-10T03:00:07;13.40;;;5.70;;
14235;SDS011;7202;50.718;7.072;2024-01-10T03:02:36;15.47;;;6.40;;
14235;SDS011;7202;50.718;7.072;2024-01-10T03:05:05;10.20;;;5.13;;
14235;SDS011;7202;50.718;7.072;2024-01-10T03:07:34;9.50;;;5.60;;
14235;SDS011;7202;50.718;7.072;2024-01-10T03:10:03;12.67;;;5.80;;
14235;SDS011;7202;50.718;7.072;2024-01-10T03:12:33;10.90;;;4.60;;
14235;SDS011;7202;50.718;7.072;2024-01-10T03:15:05;9.70;;;5.30;;
14235;SDS011;7202;50.718;7.072;2024-01-10T03:17:34;12.97;;;5.93;;
14235;SDS011;7202;50.718;7.072;2024-01-10T03:20:03;9.93;;;5.83;;
14235;SDS011;7202;50.718;7.072;2024-01-10T03:22:33;9.47;;;5.40;;
14235;SDS011;7202;50.718;7.072;2024-01-10T03:25:03;12.00;;;5.27;;
14235;SDS011;7202;50.718;7.072;2024-01-10T03:27:34;10.40;;;5.27;;
14235;SDS011;7202;50.718;7.072;2024-01-10T03:30:03;9.30;;;5.57;;
14235;SDS011;7202;50.718;7.072;2024-01-10T03:32:33;11.17;;;5.17;;
14235;SDS011;7202;50.718;7.072;2024-01-10T03:35:03;10.27;;;5.10;;
14235;SDS011;7202;50.718;7.072;2024-01-10T03:37:32;10.83;;;5.70;;
14235;SDS011;7202;50.718;7.072;2024-01-10T03:40:01;12.17;;;5.93;;
14235;SDS011;7202;50.718;7.072;2024-01-10T03:42:30;13.03;;;5.87;;
14235;SDS011;7202;50.718;7.072;2024-01-10T03:45:00;12.30;;;6.13;;
14235;SDS011;7202;50.718;7.072;2024-01-10T03:47:30;12.37;;;6.33;;
14235;SDS011;7202;50.718;7.072;2024-01-10T03:49:59;13.57;;;6.20;;
14235;SDS011;7202;50.718;7.072;2024-01-10T03:52:28;12.93;;;6.43;;
14235;SDS011;7202;50.718;7.072;2024-01-10T03:54:56;9.83;;;5.63;;
14235;SDS011;7202;50.718;7.072;2024-01-10T03:57:25;12.90;;;5.43;;
14235;SDS011;7202;50.718;7.072;2024-01-10T03:59:53;14.10;;;6.00;;
14235;SDS011;7202;50.718;7.072;2024-01-10T04:02:25;11.67;;;6.07;;
14235;SDS011;7202;50.718;7.072;2024-01-10T04:04:54;12.90;;;6.30;;
14235;SDS011;7202;50.718;7.072;2024-01-10T04:07:23;11.33;;;6.37;;
14235;SDS011;7202;50.718;7.072;2024-01-10T04:09:51;10.60;;;6.00;;
14235;SDS011;7202;50.718;7.072;2024-01-10T04:12:20;14.67;;;6.27;;
14235;SDS011;7202;50.718;7.072;2024-01-10T04:14:49;11.97;;;6.00;;
14235;SDS011;7202;50.718;7.072;2024-01-10T04:17:17;10.83;;;5.60;;
14235;SDS011;7202;50.718;7.072;2024-01-10T04:19:47;12.63;;;5.60;;
14235;SDS011;7202;50.718;7.072;2024-01-10T04:22:16;14.17;;;6.43;;
14235;SDS011;7202;50.718;7.072;2024-01-10T04:24:44;10.77;;;5.87;;
14235;SDS011;7202;50.718;7.072;2024-01-10T04:27:13;13.53;;;6.03;;
14235;SDS011;7202;50.718;7.072;2024-01-10T04:29:41;12.90;;;6.20;;
14235;SDS011;7202;50.718;7.072;2024-01-10T04:32:10;12.63;;;5.83;;
14235;SDS011;7202;50.718;7.072;2024-01-10T04:34:38;14.07;;;6.13;;
14235;SDS011;7202;50.718;7.072;2024-01-10T04:37:08;12.23;;;5.83;;
14235;SDS011;7202;50.718;7.072;2024-01-10T04:39:37;17.23;;;6.53;;
14235;SDS011;7202;50.718;7.072;2024-01-10T04:42:07;14.10;;;6.90;;
14235;SDS011;7202;50.718;7.072;2024-01-10T04:44:35;10.93;;;6.53;;
14235;SDS011;7202;50.718;7.072;2024-01-10T04:47:05;10.70;;;6.23;;
14235;SDS011;7202;50.718;7.072;2024-01-10T04:49:35;13.40;;;6.57;;
14235;SDS011;7202;50.718;7.072;2024-01-10T04:52:04;11.87;;;6.70;;
14235;SDS011;7202;50.718;7.072;2024-01-10T04:54:34;13.77;;;7.20;;
14235;SDS011;7202;50.718;7.072;2024-01-10T04:57:03;13.53;;;6.70;;
14235;SDS011;7202;50.718;7.072;2024-01-10T04:59:32;13.80;;;7.43;;
14235;SDS011;7202;50.718;7.072;2024-01-10T05:02:00;11.30;;;6.57;;
14235;SDS011;7202;50.718;7.072;2024-01-10T05:04:29;11.67;;;6.23;;
14235;SDS011;7202;50.718;7.072;2024-01-10T05:06:57;10.60;;;6.27;;
14235;SDS011;7202;50.718;7.072;2024-01-10T05:09:26;10.83;;;6.37;;
14235;SDS011;7202;50.718;7.072;2024-01-10T05:11:56;12.23;;;6.63;;
14235;SDS011;7202;50.718;7.072;2024-01-10T05:14:25;13.60;;;7.10;;
14235;SDS011;7202;50.718;7.072;2024-01-10T05:16:53;13.80;;;6.90;;
14235;SDS011;7202;50.718;7.072;2024-01-10T05:19:22;11.80;;;7.00;;
14235;SDS011;7202;50.718;7.072;2024-01-10T05:21:50;14.43;;;7.43;;
14235;SDS011;7202;50.718;7.072;2024-01-10T05:24:19;15.40;;;7.63;;
14235;SDS011;7202;50.718;7.072;2024-01-10T05:26:47;16.73;;;7.67;;
14235;SDS011;7202;50.718;7.072;2024-01-10T05:29:19;12.03;;;6.83;;
14235;SDS011;7202;50.718;7.072;2024-01-10T05:31:51;15.13;;;7.37;;
14235;SDS011;7202;50.718;7.072;2024-01-10T05:34:20;13.43;;;7.83;;
14235;SDS011;7202;50.718;7.072;2024-01-10T05:36:48;14.37;;;7.60;;
14235;SDS011;7202;50.718;7.072;2024-01-10T05:39:17;11.27;;;7.00;;
14235;SDS011;7202;50.718;7.072;2024-01-10T05:41:47;12.70;;;7.00;;
14235;SDS011;7202;50.718;7.072;2024-01-10T05:44:17;14.00;;;6.87;;
14235;SDS011;7202;50.718;7.072;2024-01-10T05:46:47;15.67;;;7.37;;
14235;SDS011;7202;50.718;7.072;2024-01-10T05:49:15;15.87;;;7.43;;
14235;SDS011;7202;50.718;7.072;2024-01-10T05:51:44;17.50;;;7.63;;
14235;SDS011;7202;50.718;7.072;2024-01-10T05:54:12;14.50;;;7.37;;
14235;SDS011;7202;50.718;7.072;2024-01-10T05:56:42;14.27;;;7.50;;
14235;SDS011;7202;50.718;7.072;2024-01-10T05:59:11;19.53;;;8.17;;
14235;SDS011;7202;50.718;7.072;2024-01-10T06:01:39;16.53;;;8.00;;
14235;SDS011;7202;50.718;7.072;2024-01-10T06:04:09;18.00;;;7.87;;
14235;SDS011;7202;50.718;7.072;2024-01-10T06:06:38;13.53;;;7.07;;
14235;SDS011;7202;50.718;7.072;2024-01-10T06:09:06;14.57;;;7.57;;
14235;SDS011;7202;50.718;7.072;2024-01-10T06:11:40;15.60;;;7.90;;
14235;SDS011;7202;50.718;7.072;2024-01-10T06:14:09;15.90;;;8.27;;
14235;SDS011;7202;50.718;7.072;2024-01-10T06:16:38;18.77;;;8.53;;
14235;SDS011;7202;50.718;7.072;2024-01-10T06:19:06;18.37;;;8.17;;
14235;SDS011;7202;50.718;7.072;2024-01-10T06:21:37;11.87;;;7.37;;
14235;SDS011;7202;50.718;7.072;2024-01-10T06:24:05;18.40;;;8.43;;
14235;SDS011;7202;50.718;7.072;2024-01-10T06:26:35;15.70;;;9.13;;
14235;SDS011;7202;50.718;7.072;2024-01-10T06:29:03;14.57;;;8.17;;
14235;SDS011;7202;50.718;7.072;2024-01-10T06:31:32;18.67;;;8.50;;
14235;SDS011;7202;50.718;7.072;2024-01-10T06:34:01;15.70;;;8.57;;
14235;SDS011;7202;50.718;7.072;2024-01-10T06:36:29;20.70;;;9.20;;
14235;SDS011;7202;50.718;7.072;2024-01-10T06:38:59;17.93;;;9.27;;
14235;SDS011;7202;50.718;7.072;2024-01-10T06:41:28;16.43;;;9.20;;
14235;SDS011;7202;50.718;7.072;2024-01-10T06:43:56;18.27;;;9.00;;
14235;SDS011;7202;50.718;7.072;2024-01-10T06:46:25;17.50;;;8.33;;
14235;SDS011;7202;50.718;7.072;2024-01-10T06:48:53;16.63;;;8.60;;
14235;SDS011;7202;50.718;7.072;2024-01-10T06:51:22;17.13;;;9.57;;
14235;SDS011;7202;50.718;7.072;2024-01-10T06:53:51;19.13;;;9.23;;
14235;SDS011;7202;50.718;7.072;2024-01-10T06:56:20;21.80;;;9.47;;
14235;SDS011;7202;50.718;7.072;2024-01-10T06:58:49;18.17;;;9.00;;
14235;SDS011;7202;50.718;7.072;2024-01-10T07:01:18;14.57;;;7.77;;
14235;SDS011;7202;50.718;7.072;2024-01-10T07:03:48;15.83;;;9.07;;
14235;SDS011;7202;50.718;7.072;2024-01-10T07:06:17;20.17;;;9.47;;
14235;SDS011;7202;50.718;7.072;2024-01-10T07:08:47;19.87;;;9.33;;
14235;SDS011;7202;50.718;7.072;2024-01-10T07:11:16;18.00;;;8.77;;
14235;SDS011;7202;50.718;7.072;2024-01-10T07:13:48;17.20;;;9.10;;
14235;SDS011;7202;50.718;7.072;2024-01-10T07:16:17;22.67;;;9.03;;
14235;SDS011;7202;50.718;7.072;2024-01-10T07:18:46;14.40;;;7.87;;
14235;SDS011;7202;50.718;7.072;2024-01-10T07:21:18;18.30;;;9.77;;
14235;SDS011;7202;50.718;7.072;2024-01-10T07:23:47;17.83;;;9.13;;
14235;SDS011;7202;50.718;7.072;2024-01-10T07:26:16;17.77;;;9.70;;
14235;SDS011;7202;50.718;7.072;2024-01-10T07:28:44;19.77;;;9.60;;
14235;SDS011;7202;50.718;7.072;2024-01-10T07:31:14;17.90;;;8.90;;
14235;SDS011;7202;50.718;7.072;2024-01-10T07:33:43;17.23;;;9.30;;
14235;SDS011;7202;50.718;7.072;2024-01-10T07:36:12;16.67;;;9.83;;
14235;SDS011;7202;50.718;7.072;2024-01-10T07:38:40;27.33;;;9.60;;
14235;SDS011;7202;50.718;7.072;2024-01-10T07:41:09;21.17;;;9.97;;
14235;SDS011;7202;50.718;7.072;2024-01-10T07:43:39;20.33;;;9.87;;
14235;SDS011;7202;50.718;7.072;2024-01-10T07:46:07;17.47;;;9.20;;
14235;SDS011;7202;50.718;7.072;2024-01-10T07:48:37;19.40;;;9.97;;
14235;SDS011;7202;50.718;7.072;2024-01-10T07:51:06;21.87;;;11.63;;
14235;SDS011;7202;50.718;7.072;2024-01-10T07:53:35;25.90;;;11.63;;
14235;SDS011;7202;50.718;7.072;2024-01-10T07:56:04;24.63;;;11.47;;
14235;SDS011;7202;50.718;7.072;2024-01-10T07:58:33;25.30;;;11.33;;
14235;SDS011;7202;50.718;7.072;2024-01-10T08:01:01;25.00;;;11.87;;
14235;SDS011;7202;50.718;7.072;2024-01-10T08:03:31;22.23;;;11.60;;
14235;SDS011;7202;50.718;7.072;2024-01-10T08:06:01;16.80;;;10.23;;
14235;SDS011;7202;50.718;7.072;2024-01-10T08:08:34;22.87;;;11.27;;
14235;SDS011;7202;50.718;7.072;2024-01-10T08:11:03;19.13;;;10.70;;
14235;SDS011;7202;50.718;7.072;2024-01-10T08:13:32;21.97;;;10.23;;
14235;SDS011;7202;50.718;7.072;2024-01-10T08:16:00;21.47;;;9.97;;
14235;SDS011;7202;50.718;7.072;2024-01-10T08:18:30;21.30;;;11.20;;
14235;SDS011;7202;50.718;7.072;2024-01-10T08:20:59;19.43;;;9.80;;
14235;SDS011;7202;50.718;7.072;2024-01-10T08:23:29;19.20;;;10.63;;
14235;SDS011;7202;50.718;7.072;2024-01-10T08:25:57;21.13;;;10.40;;
14235;SDS011;7202;50.718;7.072;2024-01-10T08:28:25;21.57;;;10.90;;
14235;SDS011;7202;50.718;7.072;2024-01-10T08:30:54;23.90;;;12.00;;
14235;SDS011;7202;50.718;7.072;2024-01-10T08:33:31;21.23;;;10.87;;
14235;SDS011;7202;50.718;7.072;2024-01-10T08:35:59;20.33;;;10.23;;
14235;SDS011;7202;50.718;7.072;2024-01-10T08:38:30;25.47;;;11.93;;
14235;SDS011;7202;50.718;7.072;2024-01-10T08:40:59;20.13;;;11.47;;
14235;SDS011;7202;50.718;7.072;2024-01-10T08:43:27;25.57;;;12.97;;
14235;SDS011;7202;50.718;7.072;2024-01-10T08:45:56;20.93;;;10.90;;
14235;SDS011;7202;50.718;7.072;2024-01-10T08:48:25;24.60;;;12.40;;
14235;SDS011;7202;50.718;7.072;2024-01-10T08:50:54;25.23;;;12.13;;
14235;SDS011;7202;50.718;7.072;2024-01-10T08:53:23;21.90;;;11.60;;
14235;SDS011;7202;50.718;7.072;2024-01-10T08:55:53;24.57;;;11.73;;
14235;SDS011;7202;50.718;7.072;2024-01-10T08:58:21;21.30;;;11.43;;
14235;SDS011;7202;50.718;7.072;2024-01-10T09:00:50;22.10;;;10.77;;
14235;SDS011;7202;50.718;7.072;2024-01-10T09:03:18;22.53;;;12.13;;
14235;SDS011;7202;50.718;7.072;2024-01-10T09:05:47;21.60;;;11.00;;
14235;SDS011;7202;50.718;7.072;2024-01-10T09:08:30;21.50;;;11.23;;
14235;SDS011;7202;50.718;7.072;2024-01-10T09:11:00;27.47;;;11.90;;
14235;SDS011;7202;50.718;7.072;2024-01-10T09:13:29;24.87;;;11.80;;
14235;SDS011;7202;50.718;7.072;2024-01-10T09:15:57;24.63;;;12.17;;
14235;SDS011;7202;50.718;7.072;2024-01-10T09:18:27;30.70;;;12.03;;
14235;SDS011;7202;50.718;7.072;2024-01-10T09:20:56;22.80;;;12.37;;
14235;SDS011;7202;50.718;7.072;2024-01-10T09:23:24;23.00;;;12.10;;
14235;SDS011;7202;50.718;7.072;2024-01-10T09:25:54;24.10;;;11.37;;
14235;SDS011;7202;50.718;7.072;2024-01-10T09:28:24;19.83;;;10.63;;
14235;SDS011;7202;50.718;7.072;2024-01-10T09:30:52;19.33;;;10.60;;
14235;SDS011;7202;50.718;7.072;2024-01-10T09:33:21;22.53;;;11.17;;
14235;SDS011;7202;50.718;7.072;2024-01-10T09:35:50;20.93;;;11.23;;
14235;SDS011;7202;50.718;7.072;2024-01-10T09:38:19;22.60;;;12.17;;
14235;SDS011;7202;50.718;7.072;2024-01-10T09:40:47;20.73;;;11.60;;
14235;SDS011;7202;50.718;7.072;2024-01-10T09:43:16;22.83;;;10.77;;
14235;SDS011;7202;50.718;7.072;2024-01-10T09:45:46;21.80;;;11.40;;
14235;SDS011;7202;50.718;7.072;2024-01-10T09:48:17;21.70;;;10.70;;
14235;SDS011;7202;50.718;7.072;2024-01-10T09:50:46;21.17;;;10.87;;
14235;SDS011;7202;50.718;7.072;2024-01-10T09:53:21;22.40;;;11.87;;
14235;SDS011;7202;50.718;7.072;2024-01-10T09:55:51;21.90;;;10.97;;
14235;SDS011;7202;50.718;7.072;2024-01-10T09:58:23;17.80;;;10.27;;
14235;SDS011;7202;50.718;7.072;2024-01-10T10:00:54;21.13;;;10.43;;
14235;SDS011;7202;50.718;7.072;2024-01-10T10:03:23;20.70;;;11.27;;
14235;SDS011;7202;50.718;7.072;2024-01-10T10:05:51;24.10;;;10.67;;
14235;SDS011;7202;50.718;7.072;2024-01-10T10:08:20;21.57;;;10.47;;
14235;SDS011;7202;50.718;7.072;2024-01-10T10:10:50;20.30;;;11.10;;
14235;SDS011;7202;50.718;7.072;2024-01-10T10:13:25;21.50;;;12.00;;
14235;SDS011;7202;50.718;7.072;2024-01-10T10:15:59;21.07;;;10.90;;
14235;SDS011;7202;50.718;7.072;2024-01-10T10:18:29;21.43;;;11.93;;
14235;SDS011;7202;50.718;7.072;2024-01-10T10:21:08;24.33;;;12.10;;
14235;SDS011;7202;50.718;7.072;2024-01-10T10:23:38;20.40;;;11.33;;
14235;SDS011;7202;50.718;7.072;2024-01-10T10:26:11;25.47;;;11.70;;
14235;SDS011;7202;50.718;7.072;2024-01-10T10:28:46;24.07;;;12.27;;
14235;SDS011;7202;50.718;7.072;2024-01-10T10:31:17;20.77;;;11.20;;
14235;SDS011;7202;50.718;7.072;2024-01-10T10:33:47;27.03;;;12.43;;
14235;SDS011;7202;50.718;7.072;2024-01-10T10:36:17;21.03;;;11.83;;
14235;SDS011;7202;50.718;7.072;2024-01-10T10:38:46;29.17;;;12.73;;
14235;SDS011;7202;50.718;7.072;2024-01-10T10:41:15;24.93;;;12.20;;
14235;SDS011;7202;50.718;7.072;2024-01-10T10:43:44;23.53;;;12.23;;
14235;SDS011;7202;50.718;7.072;2024-01-10T10:46:13;23.30;;;12.23;;
14235;SDS011;7202;50.718;7.072;2024-01-10T10:48:44;26.43;;;12.97;;
14235;SDS011;7202;50.718;7.072;2024-01-10T10:51:15;25.00;;;13.10;;
14235;SDS011;7202;50.718;7.072;2024-01-10T10:53:47;26.67;;;13.13;;
14235;SDS011;7202;50.718;7.072;2024-01-10T10:56:17;26.33;;;14.13;;
14235;SDS011;7202;50.718;7.072;2024-01-10T10:58:46;29.40;;;14.00;;
14235;SDS011;7202;50.718;7.072;2024-01-10T11:01:16;24.47;;;12.17;;
14235;SDS011;7202;50.718;7.072;2024-01-10T11:03:47;25.07;;;13.23;;
14235;SDS011;7202;50.718;7.072;2024-01-10T11:06:16;27.70;;;13.37;;
14235;SDS011;7202;50.718;7.072;2024-01-10T11:08:47;24.03;;;13.43;;
14235;SDS011;7202;50.718;7.072;2024-01-10T11:11:21;28.27;;;13.10;;
14235;SDS011;7202;50.718;7.072;2024-01-10T11:14:02;30.17;;;12.77;;
14235;SDS011;7202;50.718;7.072;2024-01-10T11:16:50;20.63;;;12.63;;
14235;SDS011;7202;50.718;7.072;2024-01-10T11:23:01;29.00;;;11.73;;
14235;SDS011;7202;50.718;7.072;2024-01-10T11:25:45;24.20;;;12.90;;
14235;SDS011;7202;50.718;7.072;2024-01-10T11:28:15;26.03;;;13.03;;
14235;SDS011;7202;50.718;7.072;2024-01-10T11:30:48;28.97;;;14.60;;
14235;SDS011;7202;50.718;7.072;2024-01-10T11:33:19;22.77;;;12.20;;
14235;SDS011;7202;50.718;7.072;2024-01-10T11:36:05;26.87;;;14.10;;
14235;SDS011;7202;50.718;7.072;2024-01-10T11:38:47;27.20;;;11.93;;
14235;SDS011;7202;50.718;7.072;2024-01-10T11:41:22;23.97;;;13.10;;
14235;SDS011;7202;50.718;7.072;2024-01-10T11:46:55;23.57;;;13.40;;
14235;SDS011;7202;50.718;7.072;2024-01-10T11:49:24;27.83;;;13.73;;
14235;SDS011;7202;50.718;7.072;2024-01-10T11:51:54;26.47;;;13.87;;
14235;SDS011;7202;50.718;7.072;2024-01-10T11:54:38;30.17;;;13.67;;
14235;SDS011;7202;50.718;7.072;2024-01-10T11:57:10;27.77;;;13.53;;
14235;SDS011;7202;50.718;7.072;2024-01-10T11:59:40;26.33;;;13.97;;
14235;SDS011;7202;50.718;7.072;2024-01-10T12:02:10;25.97;;;13.20;;
14235;SDS011;7202;50.718;7.072;2024-01-10T12:04:40;27.97;;;15.30;;
14235;SDS011;7202;50.718;7.072;2024-01-10T12:07:15;25.83;;;13.93;;
14235;SDS011;7202;50.718;7.072;2024-01-10T12:09:47;27.70;;;13.63;;
14235;SDS011;7202;50.718;7.072;2024-01-10T12:12:16;27.50;;;13.47;;
14235;SDS011;7202;50.718;7.072;2024-01-10T12:14:45;24.70;;;13.30;;
14235;SDS011;7202;50.718;7.072;2024-01-10T12:17:14;27.97;;;13.33;;
14235;SDS011;7202;50.718;7.072;2024-01-10T12:19:44;30.63;;;14.13;;
14235;SDS011;7202;50.718;7.072;2024-01-10T12:22:15;31.13;;;14.27;;
14235;SDS011;7202;50.718;7.072;2024-01-10T12:24:44;23.43;;;12.67;;
14235;SDS011;7202;50.718;7.072;2024-01-10T12:27:18;25.73;;;14.50;;
14235;SDS011;7202;50.718;7.072;2024-01-10T12:29:50;24.47;;;12.57;;
14235;SDS011;7202;50.718;7.072;2024-01-10T12:32:20;22.80;;;12.67;;
14235;SDS011;7202;50.718;7.072;2024-01-10T12:34:59;27.00;;;14.27;;
14235;SDS011;7202;50.718;7.072;2024-01-10T12:37:28;26.77;;;13.70;;
14235;SDS011;7202;50.718;7.072;2024-01-10T12:39:58;24.00;;;13.83;;
14235;SDS011;7202;50.718;7.072;2024-01-10T12:42:28;24.03;;;13.10;;
14235;SDS011;7202;50.718;7.072;2024-01-10T12:44:56;29.77;;;15.37;;
14235;SDS011;7202;50.718;7.072;2024-01-10T12:47:25;28.03;;;14.00;;
14235;SDS011;7202;50.718;7.072;2024-01-10T12:49:53;27.77;;;14.47;;
14235;SDS011;7202;50.718;7.072;2024-01-10T12:52:22;27.53;;;14.37;;
14235;SDS011;7202;50.718;7.072;2024-01-10T12:54:51;29.20;;;13.97;;
14235;SDS011;7202;50.718;7.072;2024-01-10T12:57:22;28.87;;;14.23;;
14235;SDS011;7202;50.718;7.072;2024-01-10T12:59:51;26.57;;;14.00;;
14235;SDS011;7202;50.718;7.072;2024-01-10T13:02:19;28.77;;;15.17;;
14235;SDS011;7202;50.718;7.072;2024-01-10T13:04:48;26.00;;;13.83;;
14235;SDS011;7202;50.718;7.072;2024-01-10T13:07:17;30.70;;;15.30;;
14235;SDS011;7202;50.718;7.072;2024-01-10T13:09:45;26.77;;;13.63;;
14235;SDS011;7202;50.718;7.072;2024-01-10T13:12:14;26.03;;;13.43;;
14235;SDS011;7202;50.718;7.072;2024-01-10T13:14:44;27.37;;;14.47;;
14235;SDS011;7202;50.718;7.072;2024-01-10T13:17:12;25.40;;;13.20;;
14235;SDS011;7202;50.718;7.072;2024-01-10T13:19:41;28.37;;;14.80;;
14235;SDS011;7202;50.718;7.072;2024-01-10T13:22:12;36.07;;;12.90;;
14235;SDS011;7202;50.718;7.072;2024-01-10T13:24:42;27.67;;;13.93;;
14235;SDS011;7202;50.718;7.072;2024-01-10T13:27:12;27.33;;;14.53;;
14235;SDS011;7202;50.718;7.072;2024-01-10T13:29:42;24.60;;;13.20;;
14235;SDS011;7202;50.718;7.072;2024-01-10T13:32:12;25.13;;;13.97;;
14235;SDS011;7202;50.718;7.072;2024-01-10T13:34:42;25.53;;;14.97;;
14235;SDS011;7202;50.718;7.072;2024-01-10T13:37:11;29.60;;;15.07;;
14235;SDS011;7202;50.718;7.072;2024-01-10T13:39:40;25.23;;;13.30;;
14235;SDS011;7202;50.718;7.072;2024-01-10T13:42:09;30.87;;;14.73;;
14235;SDS011;7202;50.718;7.072;2024-01-10T13:44:38;27.70;;;14.90;;
14235;SDS011;7202;50.718;7.072;2024-01-10T13:47:08;31.50;;;15.03;;
14235;SDS011;7202;50.718;7.072;2024-01-10T13:49:36;32.60;;;15.53;;
14235;SDS011;7202;50.718;7.072;2024-01-10T13:52:05;26.77;;;13.77;;
14235;SDS011;7202;50.718;7.072;2024-01-10T13:54:34;26.33;;;13.93;;
14235;SDS011;7202;50.718;7.072;2024-01-10T13:57:03;27.67;;;14.23;;
14235;SDS011;7202;50.718;7.072;2024-01-10T13:59:32;26.37;;;13.90;;
14235;SDS011;7202;50.718;7.072;2024-01-10T14:02:01;28.27;;;14.97;;
14235;SDS011;7202;50.718;7.072;2024-01-10T14:04:31;24.93;;;14.27;;
14235;SDS011;7202;50.718;7.072;2024-01-10T14:07:00;25.63;;;14.03;;
14235;SDS011;7202;50.718;7.072;2024-01-10T14:09:30;25.63;;;14.77;;
14235;SDS011;7202;50.718;7.072;2024-01-10T14:11:59;29.90;;;14.43;;
14235;SDS011;7202;50.718;7.072;2024-01-10T14:14:27;27.67;;;14.33;;
14235;SDS011;7202;50.718;7.072;2024-01-10T14:16:56;30.73;;;14.50;;
14235;SDS011;7202;50.718;7.072;2024-01-10T14:19:24;24.13;;;12.97;;
14235;SDS011;7202;50.718;7.072;2024-01-10T14:21:54;23.87;;;12.70;;
14235;SDS011;7202;50.718;7.072;2024-01-10T14:24:23;26.70;;;14.17;;
14235;SDS011;7202;50.718;7.072;2024-01-10T14:26:51;32.30;;;14.60;;
14235;SDS011;7202;50.718;7.072;2024-01-10T14:29:20;23.80;;;13.47;;
14235;SDS011;7202;50.718;7.072;2024-01-10T14:31:50;29.70;;;13.53;;
14235;SDS011;7202;50.718;7.072;2024-01-10T14:34:39;27.07;;;14.13;;
14235;SDS011;7202;50.718;7.072;2024-01-10T14:37:10;27.73;;;13.87;;
14235;SDS011;7202;50.718;7.072;2024-01-10T14:39:38;31.63;;;13.83;;
14235;SDS011;7202;50.718;7.072;2024-01-10T14:42:07;25.73;;;12.40;;
14235;SDS011;7202;50.718;7.072;2024-01-10T14:44:36;25.83;;;13.90;;
14235;SDS011;7202;50.718;7.072;2024-01-10T14:47:05;22.17;;;12.90;;
14235;SDS011;7202;50.718;7.072;2024-01-10T14:49:38;24.40;;;13.40;;
14235;SDS011;7202;50.718;7.072;2024-01-10T14:52:07;24.67;;;13.50;;
14235;SDS011;7202;50.718;7.072;2024-01-10T14:54:37;21.43;;;11.77;;
14235;SDS011;7202;50.718;7.072;2024-01-10T14:57:06;22.80;;;11.33;;
14235;SDS011;7202;50.718;7.072;2024-01-10T14:59:34;23.33;;;11.80;;
14235;SDS011;7202;50.718;7.072;2024-01-10T15:02:14;18.17;;;10.60;;
14235;SDS011;7202;50.718;7.072;2024-01-10T15:04:43;19.92;;;10.38;;